sensor_id;sensor_type;location;lat;lon;timestamp;P1;durP1;ratioP1;P2;durP2;ratioP2
55987;SDS011;75964;50.930;4.514;2024-02-23T00:00:31;5.38;;;1.40;;
55987;SDS011;75964;50.930;4.514;2024-02-23T00:02:57;6.53;;;1.00;;
55987;SDS011;75964;50.930;4.514;2024-02-23T00:05:23;4.57;;;0.95;;
55987;SDS011;75964;50.930;4.514;2024-02-23T00:07:49;4.13;;;1.00;;
55987;SDS011;75964;50.930;4.514;2024-02-23T00:10:15;6.05;;;1.17;;
55987;SDS011;75964;50.930;4.514;2024-02-23T00:12:41;5.00;;;0.90;;
55987;SDS011;75964;50.930;4.514;2024-02-23T00:15:08;8.20;;;1.35;;
55987;SDS011;75964;50.930;4.514;2024-02-23T00:17:34;4.80;;;1.30;;
55987;SDS011;75964;50.930;4.514;2024-02-23T00:20:00;4.78;;;1.48;;
55987;SDS011;75964;50.930;4.514;2024-02-23T00:22:26;5.70;;;1.30;;
55987;SDS011;75964;50.930;4.514;2024-02-23T00:24:51;9.23;;;1.50;;
55987;SDS011;75964;50.930;4.514;2024-02-23T00:27:17;6.75;;;1.17;;
55987;SDS011;75964;50.930;4.514;2024-02-23T00:29:43;5.38;;;2.35;;
55987;SDS011;75964;50.930;4.514;2024-02-23T00:32:09;11.63;;;1.40;;
55987;SDS011;75964;50.930;4.514;2024-02-23T00:34:35;4.47;;;0.90;;
55987;SDS011;75964;50.930;4.514;2024-02-23T00:37:00;5.78;;;0.98;;
55987;SDS011;75964;50.930;4.514;2024-02-23T00:39:27;8.95;;;1.27;;
55987;SDS011;75964;50.930;4.514;2024-02-23T00:41:52;6.18;;;1.42;;
55987;SDS011;75964;50.930;4.514;2024-02-23T00:44:18;5.75;;;1.20;;
55987;SDS011;75964;50.930;4.514;2024-02-23T00:46:44;8.05;;;0.80;;
55987;SDS011;75964;50.930;4.514;2024-02-23T00:49:09;7.57;;;1.27;;
55987;SDS011;75964;50.930;4.514;2024-02-23T00:51:35;4.72;;;0.70;;
55987;SDS011;75964;50.930;4.514;2024-02-23T00:54:00;6.10;;;0.98;;
55987;SDS011;75964;50.930;4.514;2024-02-23T00:56:26;3.83;;;0.95;;
55987;SDS011;75964;50.930;4.514;2024-02-23T00:58:52;7.95;;;1.30;;
55987;SDS011;75964;50.930;4.514;2024-02-23T01:01:18;9.10;;;1.55;;
55987;SDS011;75964;50.930;4.514;2024-02-23T01:03:43;3.92;;;0.77;;
55987;SDS011;75964;50.930;4.514;2024-02-23T01:06:09;5.05;;;0.80;;
55987;SDS011;75964;50.930;4.514;2024-02-23T01:08:35;6.88;;;0.77;;
55987;SDS011;75964;50.930;4.514;2024-02-23T01:11:01;7.50;;;1.00;;
55987;SDS011;75964;50.930;4.514;2024-02-23T01:13:26;7.88;;;1.20;;
55987;SDS011;75964;50.930;4.514;2024-02-23T01:15:52;3.70;;;0.77;;
55987;SDS011;75964;50.930;4.514;2024-02-23T01:18:19;5.50;;;1.20;;
55987;SDS011;75964;50.930;4.514;2024-02-23T01:20:44;9.98;;;1.38;;
55987;SDS011;75964;50.930;4.514;2024-02-23T01:23:10;10.30;;;1.63;;
55987;SDS011;75964;50.930;4.514;2024-02-23T01:25:36;4.57;;;0.90;;
55987;SDS011;75964;50.930;4.514;2024-02-23T01:28:02;4.90;;;0.80;;
55987;SDS011;75964;50.930;4.514;2024-02-23T01:30:28;8.55;;;1.10;;
55987;SDS011;75964;50.930;4.514;2024-02-23T01:32:54;10.02;;;1.50;;
55987;SDS011;75964;50.930;4.514;2024-02-23T01:35:19;8.02;;;1.20;;
55987;SDS011;75964;50.930;4.514;2024-02-23T01:37:45;7.55;;;1.40;;
55987;SDS011;75964;50.930;4.514;2024-02-23T01:40:11;6.30;;;1.30;;
55987;SDS011;75964;50.930;4.514;2024-02-23T01:42:37;6.22;;;1.65;;
55987;SDS011;75964;50.930;4.514;2024-02-23T01:45:03;4.10;;;1.13;;
55987;SDS011;75964;50.930;4.514;2024-02-23T01:47:29;6.43;;;1.00;;
55987;SDS011;75964;50.930;4.514;2024-02-23T01:49:56;3.63;;;0.93;;
55987;SDS011;75964;50.930;4.514;2024-02-23T01:52:23;9.73;;;1.17;;
55987;SDS011;75964;50.930;4.514;2024-02-23T01:54:50;4.95;;;1.10;;
55987;SDS011;75964;50.930;4.514;2024-02-23T01:57:16;8.10;;;1.40;;
55987;SDS011;75964;50.930;4.514;2024-02-23T01:59:42;4.28;;;1.05;;
55987;SDS011;75964;50.930;4.514;2024-02-23T02:02:08;3.67;;;1.63;;
55987;SDS011;75964;50.930;4.514;2024-02-23T02:04:34;7.95;;;1.20;;
55987;SDS011;75964;50.930;4.514;2024-02-23T02:06:59;8.77;;;1.55;;
55987;SDS011;75964;50.930;4.514;2024-02-23T02:09:26;8.88;;;1.40;;
55987;SDS011;75964;50.930;4.514;2024-02-23T02:11:52;6.28;;;1.20;;
55987;SDS011;75964;50.930;4.514;2024-02-23T02:14:18;6.20;;;1.08;;
55987;SDS011;75964;50.930;4.514;2024-02-23T02:16:43;10.00;;;1.48;;
55987;SDS011;75964;50.930;4.514;2024-02-23T02:19:12;6.35;;;1.75;;
55987;SDS011;75964;50.930;4.514;2024-02-23T02:21:39;5.53;;;0.93;;
55987;SDS011;75964;50.930;4.514;2024-02-23T02:24:06;14.80;;;1.95;;
55987;SDS011;75964;50.930;4.514;2024-02-23T02:26:32;8.77;;;1.85;;
55987;SDS011;75964;50.930;4.514;2024-02-23T02:28:58;6.93;;;1.13;;
55987;SDS011;75964;50.930;4.514;2024-02-23T02:31:24;9.32;;;1.75;;
55987;SDS011;75964;50.930;4.514;2024-02-23T02:33:50;10.32;;;1.95;;
55987;SDS011;75964;50.930;4.514;2024-02-23T02:36:15;9.90;;;1.45;;
55987;SDS011;75964;50.930;4.514;2024-02-23T02:38:41;7.57;;;1.88;;
55987;SDS011;75964;50.930;4.514;2024-02-23T02:41:06;6.90;;;1.50;;
55987;SDS011;75964;50.930;4.514;2024-02-23T02:43:33;7.45;;;1.50;;
55987;SDS011;75964;50.930;4.514;2024-02-23T02:45:59;15.18;;;2.33;;
55987;SDS011;75964;50.930;4.514;2024-02-23T02:48:24;6.57;;;1.52;;
55987;SDS011;75964;50.930;4.514;2024-02-23T02:50:50;8.95;;;1.83;;
55987;SDS011;75964;50.930;4.514;2024-02-23T02:53:16;9.20;;;2.03;;
55987;SDS011;75964;50.930;4.514;2024-02-23T02:55:43;9.63;;;1.67;;
55987;SDS011;75964;50.930;4.514;2024-02-23T02:58:11;8.77;;;1.98;;
55987;SDS011;75964;50.930;4.514;2024-02-23T03:00:37;9.02;;;2.47;;
55987;SDS011;75964;50.930;4.514;2024-02-23T03:03:03;12.05;;;2.17;;
55987;SDS011;75964;50.930;4.514;2024-02-23T03:05:29;8.55;;;2.15;;
55987;SDS011;75964;50.930;4.514;2024-02-23T03:07:54;11.93;;;3.00;;
55987;SDS011;75964;50.930;4.514;2024-02-23T03:10:20;10.13;;;2.60;;
55987;SDS011;75964;50.930;4.514;2024-02-23T03:12:46;8.20;;;2.60;;
55987;SDS011;75964;50.930;4.514;2024-02-23T03:15:12;14.25;;;3.00;;
55987;SDS011;75964;50.930;4.514;2024-02-23T03:17:37;13.27;;;2.65;;
55987;SDS011;75964;50.930;4.514;2024-02-23T03:20:03;8.50;;;2.50;;
55987;SDS011;75964;50.930;4.514;2024-02-23T03:22:36;7.47;;;2.05;;
55987;SDS011;75964;50.930;4.514;2024-02-23T03:25:03;8.32;;;3.10;;
55987;SDS011;75964;50.930;4.514;2024-02-23T03:27:33;11.52;;;2.17;;
55987;SDS011;75964;50.930;4.514;2024-02-23T03:30:00;8.75;;;2.17;;
55987;SDS011;75964;50.930;4.514;2024-02-23T03:32:25;7.05;;;1.95;;
55987;SDS011;75964;50.930;4.514;2024-02-23T03:34:51;13.70;;;2.90;;
55987;SDS011;75964;50.930;4.514;2024-02-23T03:37:17;9.05;;;2.42;;
55987;SDS011;75964;50.930;4.514;2024-02-23T03:39:42;14.25;;;2.28;;
55987;SDS011;75964;50.930;4.514;2024-02-23T03:42:08;11.93;;;2.38;;
55987;SDS011;75964;50.930;4.514;2024-02-23T03:44:34;10.57;;;2.63;;
55987;SDS011;75964;50.930;4.514;2024-02-23T03:46:59;10.95;;;2.72;;
55987;SDS011;75964;50.930;4.514;2024-02-23T03:49:25;7.40;;;2.55;;
55987;SDS011;75964;50.930;4.514;2024-02-23T03:51:50;7.80;;;2.40;;
55987;SDS011;75964;50.930;4.514;2024-02-23T03:54:16;10.80;;;2.10;;
55987;SDS011;75964;50.930;4.514;2024-02-23T03:56:42;9.43;;;2.28;;
55987;SDS011;75964;50.930;4.514;2024-02-23T03:59:08;10.07;;;1.98;;
55987;SDS011;75964;50.930;4.514;2024-02-23T04:01:35;13.32;;;2.08;;
55987;SDS011;75964;50.930;4.514;2024-02-23T04:04:04;12.13;;;2.30;;
55987;SDS011;75964;50.930;4.514;2024-02-23T04:06:30;9.80;;;2.17;;
55987;SDS011;75964;50.930;4.514;2024-02-23T04:08:56;6.88;;;1.70;;
55987;SDS011;75964;50.930;4.514;2024-02-23T04:11:22;10.15;;;1.90;;
55987;SDS011;75964;50.930;4.514;2024-02-23T04:13:47;14.38;;;2.30;;
55987;SDS011;75964;50.930;4.514;2024-02-23T04:16:13;8.45;;;1.92;;
55987;SDS011;75964;50.930;4.514;2024-02-23T04:18:39;7.57;;;2.10;;
55987;SDS011;75964;50.930;4.514;2024-02-23T04:21:04;10.73;;;2.35;;
55987;SDS011;75964;50.930;4.514;2024-02-23T04:23:30;10.73;;;2.05;;
55987;SDS011;75964;50.930;4.514;2024-02-23T04:25:56;12.02;;;2.15;;
55987;SDS011;75964;50.930;4.514;2024-02-23T04:28:21;6.88;;;1.90;;
55987;SDS011;75964;50.930;4.514;2024-02-23T04:30:48;13.98;;;2.42;;
55987;SDS011;75964;50.930;4.514;2024-02-23T04:33:14;9.02;;;2.47;;
55987;SDS011;75964;50.930;4.514;2024-02-23T04:35:42;13.63;;;2.43;;
55987;SDS011;75964;50.930;4.514;2024-02-23T04:38:08;12.43;;;2.03;;
55987;SDS011;75964;50.930;4.514;2024-02-23T04:40:33;13.55;;;2.25;;
55987;SDS011;75964;50.930;4.514;2024-02-23T04:42:59;12.13;;;2.55;;
55987;SDS011;75964;50.930;4.514;2024-02-23T04:45:25;13.73;;;2.95;;
55987;SDS011;75964;50.930;4.514;2024-02-23T04:47:50;12.75;;;1.98;;
55987;SDS011;75964;50.930;4.514;2024-02-23T04:50:16;11.43;;;2.63;;
55987;SDS011;75964;50.930;4.514;2024-02-23T04:52:42;6.75;;;1.73;;
55987;SDS011;75964;50.930;4.514;2024-02-23T04:55:07;7.88;;;2.05;;
55987;SDS011;75964;50.930;4.514;2024-02-23T04:57:33;10.32;;;2.33;;
55987;SDS011;75964;50.930;4.514;2024-02-23T04:59:59;11.90;;;3.38;;
55987;SDS011;75964;50.930;4.514;2024-02-23T05:02:24;13.63;;;2.63;;
55987;SDS011;75964;50.930;4.514;2024-02-23T05:04:53;4.88;;;1.05;;
55987;SDS011;75964;50.930;4.514;2024-02-23T05:07:19;10.23;;;1.70;;
55987;SDS011;75964;50.930;4.514;2024-02-23T05:09:44;9.57;;;2.13;;
55987;SDS011;75964;50.930;4.514;2024-02-23T05:12:10;10.23;;;1.85;;
55987;SDS011;75964;50.930;4.514;2024-02-23T05:14:36;7.55;;;2.03;;
55987;SDS011;75964;50.930;4.514;2024-02-23T05:17:01;11.60;;;2.22;;
55987;SDS011;75964;50.930;4.514;2024-02-23T05:19:28;12.90;;;2.72;;
55987;SDS011;75964;50.930;4.514;2024-02-23T05:21:54;9.77;;;2.20;;
55987;SDS011;75964;50.930;4.514;2024-02-23T05:24:19;9.82;;;2.50;;
55987;SDS011;75964;50.930;4.514;2024-02-23T05:26:45;8.48;;;1.73;;
55987;SDS011;75964;50.930;4.514;2024-02-23T05:29:11;9.82;;;1.90;;
55987;SDS011;75964;50.930;4.514;2024-02-23T05:31:47;8.52;;;1.50;;
55987;SDS011;75964;50.930;4.514;2024-02-23T05:34:14;11.27;;;1.83;;
55987;SDS011;75964;50.930;4.514;2024-02-23T05:36:40;9.48;;;2.20;;
55987;SDS011;75964;50.930;4.514;2024-02-23T05:39:07;7.97;;;1.65;;
55987;SDS011;75964;50.930;4.514;2024-02-23T05:41:34;8.50;;;2.03;;
55987;SDS011;75964;50.930;4.514;2024-02-23T05:44:05;10.18;;;1.65;;
55987;SDS011;75964;50.930;4.514;2024-02-23T05:46:32;9.73;;;1.80;;
55987;SDS011;75964;50.930;4.514;2024-02-23T05:48:58;12.52;;;1.85;;
55987;SDS011;75964;50.930;4.514;2024-02-23T05:51:23;15.60;;;1.90;;
55987;SDS011;75964;50.930;4.514;2024-02-23T05:53:49;10.52;;;1.92;;
55987;SDS011;75964;50.930;4.514;2024-02-23T05:56:15;10.35;;;2.20;;
55987;SDS011;75964;50.930;4.514;2024-02-23T05:58:40;10.57;;;1.65;;
55987;SDS011;75964;50.930;4.514;2024-02-23T06:01:06;7.75;;;1.77;;
55987;SDS011;75964;50.930;4.514;2024-02-23T06:03:32;8.73;;;2.03;;
55987;SDS011;75964;50.930;4.514;2024-02-23T06:05:58;8.57;;;1.73;;
55987;SDS011;75964;50.930;4.514;2024-02-23T06:08:23;12.35;;;2.10;;
55987;SDS011;75964;50.930;4.514;2024-02-23T06:11:00;12.48;;;1.83;;
55987;SDS011;75964;50.930;4.514;2024-02-23T06:13:25;9.40;;;2.10;;
55987;SDS011;75964;50.930;4.514;2024-02-23T06:15:51;9.23;;;2.00;;
55987;SDS011;75964;50.930;4.514;2024-02-23T06:18:17;14.23;;;2.28;;
55987;SDS011;75964;50.930;4.514;2024-02-23T06:20:43;12.63;;;1.83;;
55987;SDS011;75964;50.930;4.514;2024-02-23T06:23:08;9.43;;;1.55;;
55987;SDS011;75964;50.930;4.514;2024-02-23T06:25:34;7.85;;;2.17;;
55987;SDS011;75964;50.930;4.514;2024-02-23T06:28:00;11.50;;;1.67;;
55987;SDS011;75964;50.930;4.514;2024-02-23T06:30:25;11.38;;;1.75;;
55987;SDS011;75964;50.930;4.514;2024-02-23T06:32:51;9.75;;;1.90;;
55987;SDS011;75964;50.930;4.514;2024-02-23T06:35:17;8.52;;;1.85;;
55987;SDS011;75964;50.930;4.514;2024-02-23T06:37:43;8.70;;;1.42;;
55987;SDS011;75964;50.930;4.514;2024-02-23T06:40:09;7.38;;;1.70;;
55987;SDS011;75964;50.930;4.514;2024-02-23T06:42:35;5.63;;;1.77;;
55987;SDS011;75964;50.930;4.514;2024-02-23T06:45:00;7.13;;;1.40;;
55987;SDS011;75964;50.930;4.514;2024-02-23T06:47:26;9.25;;;2.10;;
55987;SDS011;75964;50.930;4.514;2024-02-23T06:49:52;8.98;;;1.98;;
55987;SDS011;75964;50.930;4.514;2024-02-23T06:52:17;13.55;;;2.58;;
55987;SDS011;75964;50.930;4.514;2024-02-23T06:54:43;8.57;;;1.90;;
55987;SDS011;75964;50.930;4.514;2024-02-23T06:57:09;9.40;;;1.60;;
55987;SDS011;75964;50.930;4.514;2024-02-23T06:59:34;8.10;;;1.67;;
55987;SDS011;75964;50.930;4.514;2024-02-23T07:02:01;9.02;;;1.50;;
55987;SDS011;75964;50.930;4.514;2024-02-23T07:04:26;11.52;;;1.85;;
55987;SDS011;75964;50.930;4.514;2024-02-23T07:06:53;7.38;;;1.90;;
55987;SDS011;75964;50.930;4.514;2024-02-23T07:09:20;12.18;;;2.38;;
55987;SDS011;75964;50.930;4.514;2024-02-23T07:11:52;12.60;;;2.42;;
55987;SDS011;75964;50.930;4.514;2024-02-23T07:14:18;10.77;;;1.63;;
55987;SDS011;75964;50.930;4.514;2024-02-23T07:16:45;9.23;;;1.92;;
55987;SDS011;75964;50.930;4.514;2024-02-23T07:19:11;6.70;;;1.55;;
55987;SDS011;75964;50.930;4.514;2024-02-23T07:21:37;11.38;;;1.83;;
55987;SDS011;75964;50.930;4.514;2024-02-23T07:24:03;11.90;;;1.95;;
55987;SDS011;75964;50.930;4.514;2024-02-23T07:26:29;14.10;;;2.55;;
55987;SDS011;75964;50.930;4.514;2024-02-23T07:28:55;20.63;;;2.33;;
55987;SDS011;75964;50.930;4.514;2024-02-23T07:31:20;11.88;;;2.13;;
55987;SDS011;75964;50.930;4.514;2024-02-23T07:33:46;7.95;;;1.63;;
55987;SDS011;75964;50.930;4.514;2024-02-23T07:36:15;10.45;;;1.77;;
55987;SDS011;75964;50.930;4.514;2024-02-23T07:38:41;8.05;;;2.05;;
55987;SDS011;75964;50.930;4.514;2024-02-23T07:41:09;11.25;;;1.80;;
55987;SDS011;75964;50.930;4.514;2024-02-23T07:43:34;9.13;;;1.92;;
55987;SDS011;75964;50.930;4.514;2024-02-23T07:46:01;14.68;;;2.17;;
55987;SDS011;75964;50.930;4.514;2024-02-23T07:48:27;9.20;;;2.00;;
55987;SDS011;75964;50.930;4.514;2024-02-23T07:50:53;9.55;;;2.13;;
55987;SDS011;75964;50.930;4.514;2024-02-23T07:53:18;15.70;;;1.88;;
55987;SDS011;75964;50.930;4.514;2024-02-23T07:55:44;9.82;;;2.28;;
55987;SDS011;75964;50.930;4.514;2024-02-23T07:58:10;10.57;;;1.90;;
55987;SDS011;75964;50.930;4.514;2024-02-23T08:00:35;11.77;;;2.03;;
55987;SDS011;75964;50.930;4.514;2024-02-23T08:03:03;9.18;;;1.20;;
55987;SDS011;75964;50.930;4.514;2024-02-23T08:05:29;7.40;;;1.83;;
55987;SDS011;75964;50.930;4.514;2024-02-23T08:07:54;10.93;;;1.95;;
55987;SDS011;75964;50.930;4.514;2024-02-23T08:10:20;11.80;;;2.20;;
55987;SDS011;75964;50.930;4.514;2024-02-23T08:12:46;8.55;;;1.60;;
55987;SDS011;75964;50.930;4.514;2024-02-23T08:15:12;10.55;;;1.85;;
55987;SDS011;75964;50.930;4.514;2024-02-23T08:17:38;9.93;;;1.75;;
55987;SDS011;75964;50.930;4.514;2024-02-23T08:20:04;7.57;;;1.40;;
55987;SDS011;75964;50.930;4.514;2024-02-23T08:22:30;9.48;;;1.60;;
55987;SDS011;75964;50.930;4.514;2024-02-23T08:24:56;10.35;;;1.92;;
55987;SDS011;75964;50.930;4.514;2024-02-23T08:27:21;8.93;;;1.75;;
55987;SDS011;75964;50.930;4.514;2024-02-23T08:29:47;9.05;;;1.55;;
55987;SDS011;75964;50.930;4.514;2024-02-23T08:32:13;13.68;;;2.28;;
55987;SDS011;75964;50.930;4.514;2024-02-23T08:34:39;8.55;;;1.90;;
55987;SDS011;75964;50.930;4.514;2024-02-23T08:37:05;13.25;;;1.65;;
55987;SDS011;75964;50.930;4.514;2024-02-23T08:39:30;11.88;;;1.65;;
55987;SDS011;75964;50.930;4.514;2024-02-23T08:41:56;8.63;;;1.90;;
55987;SDS011;75964;50.930;4.514;2024-02-23T08:44:22;13.00;;;1.63;;
55987;SDS011;75964;50.930;4.514;2024-02-23T08:46:48;8.63;;;1.70;;
55987;SDS011;75964;50.930;4.514;2024-02-23T08:49:14;11.32;;;1.92;;
55987;SDS011;75964;50.930;4.514;2024-02-23T08:51:39;11.02;;;1.95;;
55987;SDS011;75964;50.930;4.514;2024-02-23T08:54:05;7.00;;;1.70;;
55987;SDS011;75964;50.930;4.514;2024-02-23T08:56:36;10.55;;;1.60;;
55987;SDS011;75964;50.930;4.514;2024-02-23T08:59:07;7.63;;;2.10;;
55987;SDS011;75964;50.930;4.514;2024-02-23T09:01:34;14.70;;;2.30;;
55987;SDS011;75964;50.930;4.514;2024-02-23T09:04:00;8.80;;;1.77;;
55987;SDS011;75964;50.930;4.514;2024-02-23T09:06:26;10.32;;;2.00;;
55987;SDS011;75964;50.930;4.514;2024-02-23T09:08:52;10.77;;;1.90;;
55987;SDS011;75964;50.930;4.514;2024-02-23T09:11:17;9.30;;;1.77;;
55987;SDS011;75964;50.930;4.514;2024-02-23T09:13:43;10.50;;;1.60;;
55987;SDS011;75964;50.930;4.514;2024-02-23T09:16:08;5.85;;;1.88;;
55987;SDS011;75964;50.930;4.514;2024-02-23T09:18:34;6.40;;;1.60;;
55987;SDS011;75964;50.930;4.514;2024-02-23T09:21:00;7.22;;;1.25;;
55987;SDS011;75964;50.930;4.514;2024-02-23T09:23:26;8.88;;;1.65;;
55987;SDS011;75964;50.930;4.514;2024-02-23T09:25:52;5.60;;;1.50;;
55987;SDS011;75964;50.930;4.514;2024-02-23T09:28:17;6.45;;;2.00;;
55987;SDS011;75964;50.930;4.514;2024-02-23T09:30:43;11.68;;;1.88;;
55987;SDS011;75964;50.930;4.514;2024-02-23T09:33:09;8.43;;;2.25;;
55987;SDS011;75964;50.930;4.514;2024-02-23T09:35:34;7.38;;;1.98;;
55987;SDS011;75964;50.930;4.514;2024-02-23T09:38:00;9.25;;;1.60;;
55987;SDS011;75964;50.930;4.514;2024-02-23T09:40:26;8.15;;;2.00;;
55987;SDS011;75964;50.930;4.514;2024-02-23T09:42:55;7.05;;;2.03;;
55987;SDS011;75964;50.930;4.514;2024-02-23T09:45:22;8.48;;;1.60;;
55987;SDS011;75964;50.930;4.514;2024-02-23T09:47:54;8.70;;;2.40;;
55987;SDS011;75964;50.930;4.514;2024-02-23T09:50:22;6.88;;;1.52;;
55987;SDS011;75964;50.930;4.514;2024-02-23T09:52:50;10.75;;;1.67;;
55987;SDS011;75964;50.930;4.514;2024-02-23T09:55:17;10.05;;;2.00;;
55987;SDS011;75964;50.930;4.514;2024-02-23T09:57:44;4.93;;;1.58;;
55987;SDS011;75964;50.930;4.514;2024-02-23T10:00:12;9.13;;;2.27;;
55987;SDS011;75964;50.930;4.514;2024-02-23T10:02:41;12.43;;;1.80;;
55987;SDS011;75964;50.930;4.514;2024-02-23T10:05:07;8.65;;;1.48;;
55987;SDS011;75964;50.930;4.514;2024-02-23T10:07:35;6.28;;;1.65;;
55987;SDS011;75964;50.930;4.514;2024-02-23T10:10:00;9.57;;;1.67;;
55987;SDS011;75964;50.930;4.514;2024-02-23T10:12:26;8.07;;;1.42;;
55987;SDS011;75964;50.930;4.514;2024-02-23T10:14:52;10.45;;;1.80;;
55987;SDS011;75964;50.930;4.514;2024-02-23T10:17:19;9.95;;;2.33;;
55987;SDS011;75964;50.930;4.514;2024-02-23T10:19:45;8.07;;;1.88;;
55987;SDS011;75964;50.930;4.514;2024-02-23T10:22:11;7.68;;;2.28;;
55987;SDS011;75964;50.930;4.514;2024-02-23T10:24:37;10.50;;;2.20;;
55987;SDS011;75964;50.930;4.514;2024-02-23T10:27:02;8.15;;;2.40;;
55987;SDS011;75964;50.930;4.514;2024-02-23T10:29:28;8.30;;;1.92;;
55987;SDS011;75964;50.930;4.514;2024-02-23T10:31:54;10.77;;;2.35;;
55987;SDS011;75964;50.930;4.514;2024-02-23T10:34:23;8.63;;;1.90;;
55987;SDS011;75964;50.930;4.514;2024-02-23T10:36:49;4.85;;;1.63;;
55987;SDS011;75964;50.930;4.514;2024-02-23T10:39:17;7.43;;;1.45;;
55987;SDS011;75964;50.930;4.514;2024-02-23T10:41:51;7.07;;;1.70;;
55987;SDS011;75964;50.930;4.514;2024-02-23T10:44:27;6.70;;;1.80;;
55987;SDS011;75964;50.930;4.514;2024-02-23T10:46:54;9.20;;;1.92;;
55987;SDS011;75964;50.930;4.514;2024-02-23T10:49:20;8.23;;;1.92;;
55987;SDS011;75964;50.930;4.514;2024-02-23T10:51:51;9.95;;;1.65;;
55987;SDS011;75964;50.930;4.514;2024-02-23T10:54:17;6.65;;;1.65;;
55987;SDS011;75964;50.930;4.514;2024-02-23T10:56:48;7.13;;;2.25;;
55987;SDS011;75964;50.930;4.514;2024-02-23T10:59:15;11.05;;;2.00;;
55987;SDS011;75964;50.930;4.514;2024-02-23T11:01:49;6.95;;;1.35;;
55987;SDS011;75964;50.930;4.514;2024-02-23T11:04:18;8.95;;;2.05;;
55987;SDS011;75964;50.930;4.514;2024-02-23T11:06:49;8.27;;;1.88;;
55987;SDS011;75964;50.930;4.514;2024-02-23T11:09:23;10.65;;;2.08;;
55987;SDS011;75964;50.930;4.514;2024-02-23T11:11:56;12.38;;;2.63;;
55987;SDS011;75964;50.930;4.514;2024-02-23T11:14:34;6.50;;;1.45;;
55987;SDS011;75964;50.930;4.514;2024-02-23T11:17:01;8.65;;;2.25;;
55987;SDS011;75964;50.930;4.514;2024-02-23T11:19:34;10.02;;;2.30;;
55987;SDS011;75964;50.930;4.514;2024-02-23T11:22:00;6.18;;;1.52;;
55987;SDS011;75964;50.930;4.514;2024-02-23T11:24:29;7.88;;;1.85;;
55987;SDS011;75964;50.930;4.514;2024-02-23T11:26:56;10.30;;;1.98;;
55987;SDS011;75964;50.930;4.514;2024-02-23T11:29:25;6.57;;;1.52;;
55987;SDS011;75964;50.930;4.514;2024-02-23T11:31:53;4.70;;;1.30;;
55987;SDS011;75964;50.930;4.514;2024-02-23T11:34:26;10.02;;;1.88;;
55987;SDS011;75964;50.930;4.514;2024-02-23T11:36:52;11.25;;;2.65;;
55987;SDS011;75964;50.930;4.514;2024-02-23T11:39:18;9.85;;;2.20;;
55987;SDS011;75964;50.930;4.514;2024-02-23T11:41:44;10.10;;;2.60;;
55987;SDS011;75964;50.930;4.514;2024-02-23T11:44:14;8.88;;;3.38;;
55987;SDS011;75964;50.930;4.514;2024-02-23T11:46:42;9.82;;;2.08;;
55987;SDS011;75964;50.930;4.514;2024-02-23T11:49:08;11.43;;;1.83;;
55987;SDS011;75964;50.930;4.514;2024-02-23T11:51:34;7.22;;;1.67;;
55987;SDS011;75964;50.930;4.514;2024-02-23T11:54:00;8.35;;;2.35;;
55987;SDS011;75964;50.930;4.514;2024-02-23T11:56:26;10.18;;;2.33;;
55987;SDS011;75964;50.930;4.514;2024-02-23T11:58:53;9.93;;;2.05;;
55987;SDS011;75964;50.930;4.514;2024-02-23T12:01:20;8.13;;;2.20;;
55987;SDS011;75964;50.930;4.514;2024-02-23T12:03:46;7.30;;;2.10;;
55987;SDS011;75964;50.930;4.514;2024-02-23T12:06:11;13.05;;;2.50;;
55987;SDS011;75964;50.930;4.514;2024-02-23T12:08:40;7.75;;;2.10;;
55987;SDS011;75964;50.930;4.514;2024-02-23T12:11:07;9.23;;;2.10;;
55987;SDS011;75964;50.930;4.514;2024-02-23T12:13:37;11.52;;;2.42;;
55987;SDS011;75964;50.930;4.514;2024-02-23T12:16:03;8.95;;;1.73;;
55987;SDS011;75964;50.930;4.514;2024-02-23T12:18:33;8.68;;;2.40;;
55987;SDS011;75964;50.930;4.514;2024-02-23T12:21:03;8.02;;;1.80;;
55987;SDS011;75964;50.930;4.514;2024-02-23T12:23:41;6.30;;;2.03;;
55987;SDS011;75964;50.930;4.514;2024-02-23T12:26:07;7.82;;;2.30;;
55987;SDS011;75964;50.930;4.514;2024-02-23T12:28:34;8.35;;;1.70;;
55987;SDS011;75964;50.930;4.514;2024-02-23T12:31:00;9.35;;;1.85;;
55987;SDS011;75964;50.930;4.514;2024-02-23T12:33:33;10.07;;;2.05;;
55987;SDS011;75964;50.930;4.514;2024-02-23T12:36:00;7.50;;;2.22;;
55987;SDS011;75964;50.930;4.514;2024-02-23T12:38:28;8.48;;;2.30;;
55987;SDS011;75964;50.930;4.514;2024-02-23T12:40:54;7.65;;;2.60;;
55987;SDS011;75964;50.930;4.514;2024-02-23T12:43:20;7.95;;;2.63;;
55987;SDS011;75964;50.930;4.514;2024-02-23T12:45:54;6.47;;;2.30;;
55987;SDS011;75964;50.930;4.514;2024-02-23T12:48:21;10.13;;;2.72;;
55987;SDS011;75964;50.930;4.514;2024-02-23T12:50:47;9.75;;;2.38;;
55987;SDS011;75964;50.930;4.514;2024-02-23T12:53:33;7.07;;;2.08;;
55987;SDS011;75964;50.930;4.514;2024-02-23T12:56:03;5.60;;;1.77;;
55987;SDS011;75964;50.930;4.514;2024-02-23T12:58:30;7.38;;;1.63;;
55987;SDS011;75964;50.930;4.514;2024-02-23T13:00:56;9.45;;;2.00;;
55987;SDS011;75964;50.930;4.514;2024-02-23T13:03:23;7.32;;;1.70;;
55987;SDS011;75964;50.930;4.514;2024-02-23T13:05:50;5.47;;;1.85;;
55987;SDS011;75964;50.930;4.514;2024-02-23T13:08:16;5.43;;;1.65;;
55987;SDS011;75964;50.930;4.514;2024-02-23T13:10:43;3.78;;;1.17;;
55987;SDS011;75964;50.930;4.514;2024-02-23T13:13:08;6.53;;;2.05;;
55987;SDS011;75964;50.930;4.514;2024-02-23T13:15:34;10.18;;;2.00;;
55987;SDS011;75964;50.930;4.514;2024-02-23T13:18:02;9.50;;;2.00;;
55987;SDS011;75964;50.930;4.514;2024-02-23T13:20:29;6.10;;;1.60;;
55987;SDS011;75964;50.930;4.514;2024-02-23T13:22:54;3.47;;;1.40;;
55987;SDS011;75964;50.930;4.514;2024-02-23T13:25:21;9.75;;;1.85;;
55987;SDS011;75964;50.930;4.514;2024-02-23T13:27:46;6.90;;;1.77;;
55987;SDS011;75964;50.930;4.514;2024-02-23T13:30:12;9.40;;;1.58;;
55987;SDS011;75964;50.930;4.514;2024-02-23T13:32:38;7.53;;;1.70;;
55987;SDS011;75964;50.930;4.514;2024-02-23T13:35:04;11.20;;;1.77;;
55987;SDS011;75964;50.930;4.514;2024-02-23T13:37:31;7.32;;;1.80;;
55987;SDS011;75964;50.930;4.514;2024-02-23T13:39:57;7.97;;;2.28;;
55987;SDS011;75964;50.930;4.514;2024-02-23T13:42:23;7.13;;;1.33;;
55987;SDS011;75964;50.930;4.514;2024-02-23T13:44:48;7.95;;;1.85;;
55987;SDS011;75964;50.930;4.514;2024-02-23T13:47:14;6.70;;;1.50;;
55987;SDS011;75964;50.930;4.514;2024-02-23T13:49:40;8.68;;;1.65;;
55987;SDS011;75964;50.930;4.514;2024-02-23T13:52:05;5.20;;;1.50;;
55987;SDS011;75964;50.930;4.514;2024-02-23T13:54:31;10.20;;;1.40;;
55987;SDS011;75964;50.930;4.514;2024-02-23T13:56:57;11.90;;;1.77;;
55987;SDS011;75964;50.930;4.514;2024-02-23T13:59:22;5.18;;;1.58;;
55987;SDS011;75964;50.930;4.514;2024-02-23T14:01:48;7.40;;;1.40;;
55987;SDS011;75964;50.930;4.514;2024-02-23T14:04:14;6.53;;;1.40;;
55987;SDS011;75964;50.930;4.514;2024-02-23T14:06:39;10.88;;;1.85;;
55987;SDS011;75964;50.930;4.514;2024-02-23T14:09:05;7.80;;;1.38;;
55987;SDS011;75964;50.930;4.514;2024-02-23T14:11:31;6.38;;;1.13;;
55987;SDS011;75964;50.930;4.514;2024-02-23T14:13:57;6.65;;;1.30;;
55987;SDS011;75964;50.930;4.514;2024-02-23T14:16:23;7.45;;;1.27;;
55987;SDS011;75964;50.930;4.514;2024-02-23T14:18:49;5.65;;;1.15;;
55987;SDS011;75964;50.930;4.514;2024-02-23T14:21:15;7.60;;;1.70;;
55987;SDS011;75964;50.930;4.514;2024-02-23T14:23:41;5.97;;;1.48;;
55987;SDS011;75964;50.930;4.514;2024-02-23T14:26:07;7.13;;;1.20;;
55987;SDS011;75964;50.930;4.514;2024-02-23T14:28:33;5.97;;;1.38;;
55987;SDS011;75964;50.930;4.514;2024-02-23T14:30:59;9.45;;;1.38;;
55987;SDS011;75964;50.930;4.514;2024-02-23T14:33:25;5.15;;;1.45;;
55987;SDS011;75964;50.930;4.514;2024-02-23T14:35:50;6.55;;;1.35;;
55987;SDS011;75964;50.930;4.514;2024-02-23T14:38:16;3.70;;;1.00;;